Terminal Aerodrome Forecast
Issued by NWS

Home | Current Version | Previous Version | Text Only | Print | Product List | Glossary Off
Versions: 1 2 3 4 5 6 7 8 9 10 11 12 13 14 15 16 17 18 19 20 21 22 23 24 25 26 27 28 29 30
000 FTUS41 KBOX 211407 AAA TAFHYA TAF AMD KHYA 211407Z 2114/2212 17009G18KT P6SM SCT015 BKN025 FM212000 14009KT P6SM BKN025 FM220300 06005KT P6SM BKN050 FM220500 02004KT 5SM BR BKN015 FM220900 02005KT 5SM BR BKN008=

USA.gov is the U.S. government's official web portal to all federal, state and local government web resources and services.